createdAt,value
2018-02-25T00:01:00.509Z,97.50
2018-02-25T00:03:28.544Z,97.70
2018-02-25T00:05:56.216Z,98.00
2018-02-25T00:08:24.203Z,97.90
2018-02-25T00:10:51.872Z,97.80
2018-02-25T00:13:19.585Z,98.00
2018-02-25T00:15:47.216Z,98.00
2018-02-25T00:18:14.855Z,98.80
2018-02-25T00:20:42.547Z,98.40
2018-02-25T00:23:10.197Z,98.70
2018-02-25T00:25:37.886Z,98.70
2018-02-25T00:28:05.511Z,99.20
2018-02-25T00:30:33.164Z,99.50
2018-02-25T00:33:01.607Z,99.80
2018-02-25T00:35:29.278Z,99.90
2018-02-25T00:37:56.935Z,99.90
2018-02-25T00:40:25.681Z,99.90
2018-02-25T00:42:53.688Z,99.90
2018-02-25T00:45:21.353Z,99.90
2018-02-25T00:47:49.015Z,99.90
2018-02-25T00:50:16.706Z,99.90
2018-02-25T00:52:44.365Z,99.90
2018-02-25T00:55:13.155Z,99.90
2018-02-25T00:57:40.816Z,99.90
2018-02-25T01:00:09.346Z,99.90
2018-02-25T01:02:37.036Z,99.90
2018-02-25T01:05:04.710Z,99.90
2018-02-25T01:07:32.607Z,99.90
2018-02-25T01:10:00.250Z,99.90
2018-02-25T01:12:27.915Z,99.90
2018-02-25T01:14:55.635Z,99.90
2018-02-25T01:17:23.273Z,99.90
2018-02-25T01:19:50.938Z,99.90
2018-02-25T01:22:18.597Z,99.90
2018-02-25T01:24:46.233Z,99.90
2018-02-25T01:27:13.903Z,99.90
2018-02-25T01:29:42.457Z,99.90
2018-02-25T01:32:10.098Z,99.90
2018-02-25T01:34:37.760Z,99.90
2018-02-25T01:37:05.435Z,99.90
2018-02-25T01:39:33.067Z,99.90
2018-02-25T01:42:00.897Z,99.90
2018-02-25T01:44:28.527Z,99.90
2018-02-25T01:46:56.172Z,99.90
2018-02-25T01:49:23.902Z,99.90
2018-02-25T01:51:51.727Z,99.90
2018-02-25T01:54:19.409Z,99.90
2018-02-25T01:56:47.085Z,99.90
2018-02-25T01:59:14.794Z,99.90
2018-02-25T02:01:42.466Z,99.90
2018-02-25T02:04:10.954Z,99.90
2018-02-25T02:06:39.440Z,99.90
2018-02-25T02:09:08.624Z,99.90
2018-02-25T02:11:37.118Z,99.90
2018-02-25T02:14:05.578Z,99.90
2018-02-25T02:16:33.219Z,99.90
2018-02-25T02:19:00.910Z,99.90
2018-02-25T02:21:29.380Z,99.90
2018-02-25T02:23:57.042Z,99.90
2018-02-25T02:26:24.705Z,99.90
2018-02-25T02:28:52.406Z,99.90
2018-02-25T02:31:20.869Z,99.90
2018-02-25T02:33:48.554Z,99.90
2018-02-25T02:36:16.194Z,99.90
2018-02-25T02:38:43.866Z,99.90
2018-02-25T02:41:11.553Z,99.90
2018-02-25T02:43:39.232Z,99.90
2018-02-25T02:46:06.902Z,99.90
2018-02-25T02:48:34.537Z,99.90
2018-02-25T02:51:02.564Z,99.90
2018-02-25T02:53:30.996Z,99.90
2018-02-25T02:55:58.698Z,99.90
2018-02-25T02:58:26.401Z,99.90
2018-02-25T03:00:54.071Z,99.90
2018-02-25T03:03:21.698Z,99.90
2018-02-25T03:05:49.768Z,99.90
2018-02-25T03:08:17.442Z,99.90
2018-02-25T03:10:45.885Z,99.90
2018-02-25T03:13:13.577Z,99.90
2018-02-25T03:15:41.633Z,99.90
2018-02-25T03:18:09.312Z,99.90
2018-02-25T03:20:36.974Z,99.90
2018-02-25T03:23:04.648Z,99.90
2018-02-25T03:25:32.326Z,99.90
2018-02-25T03:27:59.995Z,99.90
2018-02-25T03:30:27.731Z,99.90
2018-02-25T03:32:55.432Z,99.90
2018-02-25T03:35:23.062Z,99.90
2018-02-25T03:37:50.756Z,99.90
2018-02-25T03:40:18.709Z,99.90
2018-02-25T03:42:46.388Z,99.90
2018-02-25T03:45:14.048Z,99.90
2018-02-25T03:47:41.709Z,99.90
2018-02-25T03:50:09.374Z,99.90
2018-02-25T03:52:37.098Z,99.90
2018-02-25T03:55:05.717Z,99.90
2018-02-25T03:57:33.350Z,99.90
2018-02-25T04:00:01.760Z,99.90
2018-02-25T04:02:29.478Z,99.90
2018-02-25T04:04:57.143Z,99.90
2018-02-25T04:07:24.791Z,99.90
2018-02-25T04:09:52.470Z,99.90
2018-02-25T04:12:20.102Z,99.90
2018-02-25T04:14:47.735Z,99.90
2018-02-25T04:17:16.188Z,99.90
2018-02-25T04:19:44.143Z,99.90
2018-02-25T04:22:11.789Z,99.90
2018-02-25T04:24:39.456Z,99.90
2018-02-25T04:27:07.122Z,99.90
2018-02-25T04:29:34.757Z,99.90
2018-02-25T04:32:02.424Z,99.90
2018-02-25T04:34:30.825Z,99.90
2018-02-25T04:36:58.501Z,99.90
2018-02-25T04:39:26.149Z,99.90
2018-02-25T04:41:54.725Z,99.90
2018-02-25T04:44:22.362Z,99.90
2018-02-25T04:46:49.995Z,99.90
2018-02-25T04:49:17.686Z,99.90
2018-02-25T04:51:45.344Z,99.90
2018-02-25T04:54:13.030Z,99.90
2018-02-25T04:56:40.704Z,99.90
2018-02-25T04:59:08.371Z,99.90
2018-02-25T05:01:37.773Z,99.90
2018-02-25T05:04:05.431Z,99.90
2018-02-25T05:06:33.096Z,99.90
2018-02-25T05:09:01.096Z,99.90
2018-02-25T05:11:28.724Z,99.90
2018-02-25T05:13:56.390Z,99.90
2018-02-25T05:16:24.057Z,99.90
2018-02-25T05:18:51.712Z,99.90
2018-02-25T05:21:19.381Z,99.90
2018-02-25T05:23:47.025Z,99.90
2018-02-25T05:26:14.705Z,99.90
2018-02-25T05:28:42.348Z,99.90
2018-02-25T05:31:10.797Z,99.90
2018-02-25T05:33:38.482Z,99.90
2018-02-25T05:36:06.962Z,99.90
2018-02-25T05:38:34.618Z,99.90
2018-02-25T05:41:02.296Z,99.90
2018-02-25T05:43:29.969Z,99.90
2018-02-25T05:45:57.636Z,99.90
2018-02-25T05:48:25.962Z,99.90
2018-02-25T05:50:53.608Z,99.90
2018-02-25T05:53:22.022Z,99.90
2018-02-25T05:55:50.234Z,99.90
2018-02-25T05:58:18.701Z,99.90
2018-02-25T06:00:46.363Z,99.90
2018-02-25T06:03:14.070Z,99.90
2018-02-25T06:05:41.727Z,99.90
2018-02-25T06:08:10.201Z,99.90
2018-02-25T06:10:37.911Z,99.90
2018-02-25T06:13:05.593Z,99.90
2018-02-25T06:15:33.543Z,99.90
2018-02-25T06:18:01.211Z,99.90
2018-02-25T06:20:28.861Z,99.90
2018-02-25T06:22:56.542Z,99.90
2018-02-25T06:25:24.328Z,99.90
2018-02-25T06:27:53.807Z,99.90
2018-02-25T06:30:24.155Z,99.90
2018-02-25T06:32:52.653Z,99.90
2018-02-25T06:35:21.086Z,99.90
2018-02-25T06:37:50.934Z,99.90
2018-02-25T06:40:18.646Z,99.90
2018-02-25T06:42:46.680Z,99.90
2018-02-25T06:45:14.339Z,99.90
2018-02-25T06:47:42.316Z,99.90
2018-02-25T06:50:10.396Z,99.90
2018-02-25T06:52:38.104Z,99.90
2018-02-25T06:55:05.833Z,99.90
2018-02-25T06:57:33.497Z,99.90
2018-02-25T07:00:01.952Z,99.90
2018-02-25T07:02:30.558Z,99.90
2018-02-25T07:05:00.106Z,99.90
2018-02-25T07:07:28.507Z,99.90
2018-02-25T07:09:56.183Z,99.90
2018-02-25T07:12:26.079Z,99.90
2018-02-25T07:14:54.548Z,99.90
2018-02-25T07:17:22.291Z,99.90
2018-02-25T07:19:51.169Z,99.90
2018-02-25T07:22:18.848Z,99.90
2018-02-25T07:24:46.494Z,99.90
2018-02-25T07:27:14.176Z,99.90
2018-02-25T07:29:42.418Z,99.90
2018-02-25T07:32:10.824Z,99.90
2018-02-25T07:34:39.522Z,99.90
2018-02-25T07:37:07.208Z,99.90
2018-02-25T07:39:34.892Z,99.90
2018-02-25T07:42:02.568Z,99.90
2018-02-25T07:44:30.246Z,99.90
2018-02-25T07:46:58.696Z,99.90
2018-02-25T07:49:26.659Z,99.90
2018-02-25T07:51:54.344Z,99.90
2018-02-25T07:54:22.905Z,99.90
2018-02-25T07:56:50.588Z,99.90
2018-02-25T07:59:18.256Z,99.90
2018-02-25T08:01:46.736Z,99.90
2018-02-25T08:04:14.447Z,99.90
2018-02-25T08:06:42.875Z,99.90
2018-02-25T08:09:10.638Z,99.90
2018-02-25T08:11:38.299Z,99.90
2018-02-25T08:14:06.652Z,99.90
2018-02-25T08:16:35.090Z,99.90
2018-02-25T08:19:02.767Z,99.90
2018-02-25T08:21:30.481Z,99.90
2018-02-25T08:23:59.239Z,99.50
2018-02-25T08:26:26.933Z,99.50
2018-02-25T08:28:55.414Z,97.80
2018-02-25T08:31:23.863Z,97.20
2018-02-25T08:33:51.568Z,97.20
2018-02-25T08:36:21.104Z,96.40
2018-02-25T08:38:49.652Z,95.80
2018-02-25T08:41:19.696Z,93.00
2018-02-25T08:43:48.143Z,94.00
2018-02-25T08:46:15.931Z,93.80
2018-02-25T08:48:44.435Z,92.40
2018-02-25T08:51:12.199Z,92.40
2018-02-25T08:53:40.643Z,93.20
2018-02-25T08:56:08.342Z,93.20
2018-02-25T08:58:36.818Z,91.60
2018-02-25T09:01:04.507Z,91.50
2018-02-25T09:03:32.944Z,90.10
2018-02-25T09:06:00.684Z,90.40
2018-02-25T09:08:29.328Z,90.10
2018-02-25T09:10:57.039Z,90.80
2018-02-25T09:13:24.740Z,90.70
2018-02-25T09:15:52.863Z,90.20
2018-02-25T09:18:20.620Z,90.00
2018-02-25T09:20:49.142Z,90.90
2018-02-25T09:23:16.838Z,91.00
2018-02-25T09:25:44.813Z,89.30
2018-02-25T09:28:12.525Z,88.80
2018-02-25T09:30:40.981Z,85.30
2018-02-25T09:33:08.616Z,85.30
2018-02-25T09:35:36.415Z,87.20
2018-02-25T09:38:04.456Z,88.80
2018-02-25T09:40:32.165Z,83.20
2018-02-25T09:43:00.625Z,81.30
2018-02-25T09:45:28.282Z,81.10
2018-02-25T09:47:56.051Z,83.70
2018-02-25T09:50:23.815Z,82.10
2018-02-25T09:52:51.473Z,84.10
2018-02-25T09:55:19.186Z,83.30
2018-02-25T09:57:46.875Z,85.20
2018-02-25T10:00:14.554Z,84.80
2018-02-25T10:02:43.322Z,84.60
2018-02-25T10:05:10.987Z,85.30
2018-02-25T10:07:38.673Z,80.30
2018-02-25T10:10:06.385Z,82.10
2018-02-25T10:12:34.411Z,83.70
2018-02-25T10:15:02.909Z,79.10
2018-02-25T10:17:36.465Z,81.00
2018-02-25T10:20:04.172Z,80.80
2018-02-25T10:22:32.784Z,75.20
2018-02-25T10:25:00.546Z,77.00
2018-02-25T10:27:29.529Z,79.20
2018-02-25T10:29:57.255Z,78.30
2018-02-25T10:32:24.943Z,76.50
2018-02-25T10:34:52.721Z,76.00
2018-02-25T10:37:20.362Z,76.90
2018-02-25T10:39:48.626Z,74.40
2018-02-25T10:42:16.330Z,76.20
2018-02-25T10:44:44.042Z,73.80
2018-02-25T10:47:11.703Z,73.90
2018-02-25T10:49:39.364Z,72.30
2018-02-25T10:52:07.366Z,73.50
2018-02-25T10:54:35.086Z,68.60
2018-02-25T10:57:03.574Z,63.90
2018-02-25T10:59:31.271Z,63.90
2018-02-25T11:01:59.004Z,68.20
2018-02-25T11:04:27.468Z,66.80
2018-02-25T11:06:55.147Z,66.00
2018-02-25T11:09:23.151Z,64.10
2018-02-25T11:11:51.655Z,67.40
2018-02-25T11:14:19.367Z,67.40
2018-02-25T11:16:47.026Z,65.70
2018-02-25T11:19:15.912Z,62.60
2018-02-25T11:21:43.604Z,62.00
2018-02-25T11:24:11.277Z,66.30
2018-02-25T11:26:38.940Z,64.90
2018-02-25T11:29:07.327Z,66.50
2018-02-25T11:31:35.061Z,64.20
2018-02-25T11:34:02.920Z,65.30
2018-02-25T11:36:30.582Z,61.50
2018-02-25T11:38:58.226Z,64.80
2018-02-25T11:41:25.897Z,62.20
2018-02-25T11:43:54.297Z,62.20
2018-02-25T11:46:21.997Z,62.30
2018-02-25T11:48:49.641Z,57.00
2018-02-25T11:51:17.382Z,62.00
2018-02-25T11:53:45.840Z,57.70
2018-02-25T11:56:13.573Z,57.60
2018-02-25T11:58:41.265Z,61.00
2018-02-25T12:01:08.964Z,58.50
2018-02-25T12:03:37.421Z,57.90
2018-02-25T12:06:05.926Z,57.30
2018-02-25T12:08:34.356Z,54.30
2018-02-25T12:11:02.490Z,54.20
2018-02-25T12:13:30.205Z,51.60
2018-02-25T12:15:57.873Z,52.00
2018-02-25T12:18:25.504Z,53.90
2018-02-25T12:20:53.942Z,49.60
2018-02-25T12:23:21.898Z,49.80
2018-02-25T12:25:50.303Z,56.80
2018-02-25T12:28:17.998Z,53.90
2018-02-25T12:30:46.438Z,53.30
2018-02-25T12:33:14.069Z,53.10
2018-02-25T12:35:42.843Z,53.30
2018-02-25T12:38:11.261Z,50.80
2018-02-25T12:40:38.914Z,52.90
2018-02-25T12:43:07.352Z,55.70
2018-02-25T12:45:35.047Z,55.60
2018-02-25T12:48:02.734Z,56.60
2018-02-25T12:50:30.393Z,57.90
2018-02-25T12:52:58.866Z,59.30
2018-02-25T12:55:26.562Z,59.30
2018-02-25T12:57:54.192Z,62.10
2018-02-25T13:00:21.890Z,64.10
2018-02-25T13:02:50.320Z,59.70
2018-02-25T13:05:17.990Z,59.60
2018-02-25T13:07:45.682Z,62.30
2018-02-25T13:10:13.347Z,61.40
2018-02-25T13:12:41.024Z,64.90
2018-02-25T13:15:08.691Z,64.10
2018-02-25T13:17:36.406Z,63.30
2018-02-25T13:20:04.110Z,63.20
2018-02-25T13:22:31.776Z,65.30
2018-02-25T13:24:59.489Z,63.90
2018-02-25T13:27:27.157Z,67.20
2018-02-25T13:29:54.859Z,67.40
2018-02-25T13:32:22.553Z,63.80
2018-02-25T13:34:50.244Z,67.50
2018-02-25T13:37:19.458Z,69.50
2018-02-25T13:39:47.172Z,69.40
2018-02-25T13:42:14.859Z,69.50
2018-02-25T13:44:42.531Z,65.20
2018-02-25T13:47:10.172Z,65.50
2018-02-25T13:49:38.534Z,65.60
2018-02-25T13:52:06.793Z,65.20
2018-02-25T13:54:35.198Z,64.00
2018-02-25T13:57:03.855Z,64.00
2018-02-25T13:59:31.621Z,65.30
2018-02-25T14:02:00.047Z,67.60
2018-02-25T14:04:27.744Z,67.00
2018-02-25T14:06:55.459Z,61.90
2018-02-25T14:09:23.132Z,65.60
2018-02-25T14:11:50.806Z,67.90
2018-02-25T14:14:18.507Z,67.90
2018-02-25T14:16:47.246Z,67.20
2018-02-25T14:19:15.679Z,66.20
2018-02-25T14:21:43.388Z,66.10
2018-02-25T14:24:11.801Z,68.90
2018-02-25T14:26:39.515Z,68.90
2018-02-25T14:29:08.113Z,67.80
2018-02-25T14:31:35.823Z,70.30
2018-02-25T14:34:03.498Z,68.40
2018-02-25T14:36:31.288Z,69.60
2018-02-25T14:38:58.971Z,68.80
2018-02-25T14:41:27.198Z,69.80
2018-02-25T14:43:55.856Z,69.00
2018-02-25T14:46:24.351Z,70.30
2018-02-25T14:48:52.037Z,70.20
2018-02-25T14:51:19.756Z,70.80
2018-02-25T14:53:47.939Z,69.90
2018-02-25T14:56:16.386Z,73.80
2018-02-25T14:58:44.051Z,73.80
2018-02-25T15:01:11.736Z,70.70
2018-02-25T15:03:39.373Z,73.00
2018-02-25T15:06:07.050Z,73.50
2018-02-25T15:08:34.716Z,74.20
2018-02-25T15:11:03.247Z,75.60
2018-02-25T15:13:32.032Z,75.10
2018-02-25T15:15:59.658Z,75.10
2018-02-25T15:18:27.342Z,74.30
2018-02-25T15:20:55.023Z,75.80
2018-02-25T15:23:22.689Z,75.30
2018-02-25T15:25:50.387Z,74.50
2018-02-25T15:28:18.154Z,75.20
2018-02-25T15:30:45.859Z,75.60
2018-02-25T15:33:13.539Z,75.90
2018-02-25T15:35:41.181Z,77.30
2018-02-25T15:38:08.869Z,76.70
2018-02-25T15:40:36.551Z,75.10
2018-02-25T15:43:04.213Z,78.20
2018-02-25T15:45:31.847Z,77.40
2018-02-25T15:47:59.858Z,78.00
2018-02-25T15:50:27.519Z,77.00
2018-02-25T15:52:56.162Z,79.60
2018-02-25T15:55:24.610Z,79.70
2018-02-25T15:57:52.303Z,80.00
2018-02-25T16:00:20.713Z,81.40
2018-02-25T16:02:48.751Z,80.60
2018-02-25T16:05:16.468Z,80.40
2018-02-25T16:07:44.260Z,81.00
2018-02-25T16:10:11.940Z,80.60
2018-02-25T16:12:40.269Z,81.90
2018-02-25T16:15:07.969Z,81.10
2018-02-25T16:17:35.675Z,83.40
2018-02-25T16:20:03.366Z,83.20
2018-02-25T16:22:31.825Z,85.30
2018-02-25T16:25:00.311Z,85.00
2018-02-25T16:27:28.778Z,86.10
2018-02-25T16:29:56.535Z,85.60
2018-02-25T16:32:24.972Z,85.10
2018-02-25T16:34:53.665Z,86.90
2018-02-25T16:37:21.452Z,86.90
2018-02-25T16:39:49.134Z,87.80
2018-02-25T16:42:16.821Z,89.00
2018-02-25T16:44:44.606Z,90.20
2018-02-25T16:47:12.291Z,90.30
2018-02-25T16:49:40.733Z,90.50
2018-02-25T16:52:08.365Z,90.50
2018-02-25T16:54:36.144Z,90.70
2018-02-25T16:57:04.577Z,91.10
2018-02-25T16:59:32.987Z,91.00
2018-02-25T17:02:01.937Z,91.40
2018-02-25T17:04:29.592Z,91.40
2018-02-25T17:06:58.103Z,91.30
2018-02-25T17:09:25.813Z,91.80
2018-02-25T17:11:54.274Z,92.50
2018-02-25T17:14:22.778Z,93.00
2018-02-25T17:16:51.539Z,92.60
2018-02-25T17:19:20.430Z,92.70
2018-02-25T17:21:48.397Z,92.70
2018-02-25T17:24:16.060Z,93.10
2018-02-25T17:26:43.804Z,93.50
2018-02-25T17:29:11.902Z,94.50
2018-02-25T17:31:40.274Z,94.60
2018-02-25T17:34:07.988Z,95.10
2018-02-25T17:36:35.640Z,95.00
2018-02-25T17:39:04.232Z,94.50
2018-02-25T17:41:32.299Z,94.60
2018-02-25T17:44:00.786Z,94.90
2018-02-25T17:46:28.854Z,94.60
2018-02-25T17:48:56.542Z,94.40
2018-02-25T17:51:24.184Z,94.60
2018-02-25T17:53:52.470Z,94.70
2018-02-25T17:56:20.152Z,94.50
2018-02-25T17:58:47.858Z,94.80
2018-02-25T18:01:15.582Z,94.60
2018-02-25T18:03:44.126Z,94.60
2018-02-25T18:06:12.570Z,94.60
2018-02-25T18:08:40.492Z,94.50
2018-02-25T18:11:08.129Z,95.00
2018-02-25T18:13:36.569Z,94.80
2018-02-25T18:16:04.277Z,94.70
2018-02-25T18:18:32.755Z,95.20
2018-02-25T18:21:00.425Z,95.10
2018-02-25T18:23:28.894Z,94.00
2018-02-25T18:25:56.550Z,93.90
2018-02-25T18:28:24.551Z,94.50
2018-02-25T18:30:52.206Z,94.60
2018-02-25T18:33:20.693Z,94.80
2018-02-25T18:35:48.339Z,94.80
2018-02-25T18:38:16.648Z,95.00
2018-02-25T18:40:44.317Z,95.30
2018-02-25T18:43:12.811Z,95.90
2018-02-25T18:45:40.550Z,95.60
2018-02-25T18:48:08.624Z,96.00
2018-02-25T18:50:36.732Z,96.30
2018-02-25T18:53:05.206Z,96.10
2018-02-25T18:55:32.894Z,96.10
2018-02-25T18:58:01.333Z,96.70
2018-02-25T19:00:29.012Z,96.60
2018-02-25T19:02:56.709Z,97.00
2018-02-25T19:05:25.176Z,97.00
2018-02-25T19:07:53.595Z,96.80
2018-02-25T19:10:21.277Z,96.80
2018-02-25T19:12:48.936Z,97.00
2018-02-25T19:15:16.622Z,96.90
2018-02-25T19:17:44.250Z,97.10
2018-02-25T19:20:12.933Z,97.50
2018-02-25T19:22:41.428Z,97.70
2018-02-25T19:25:09.371Z,97.60
2018-02-25T19:27:37.046Z,97.40
2018-02-25T19:30:04.680Z,97.40
2018-02-25T19:32:33.181Z,97.90
2018-02-25T19:35:00.865Z,97.90
2018-02-25T19:37:34.362Z,97.80
2018-02-25T19:40:03.614Z,99.30
2018-02-25T19:42:31.328Z,99.10
2018-02-25T19:44:58.995Z,99.70
2018-02-25T19:47:26.976Z,99.50
2018-02-25T19:49:54.646Z,99.70
2018-02-25T19:52:22.286Z,99.10
2018-02-25T19:54:50.745Z,99.80
2018-02-25T19:57:18.393Z,99.50
2018-02-25T19:59:46.772Z,99.90
2018-02-25T20:02:14.536Z,99.90
2018-02-25T20:04:42.181Z,99.90
2018-02-25T20:07:10.196Z,99.90
2018-02-25T20:09:39.213Z,99.90
2018-02-25T20:12:07.600Z,99.90
2018-02-25T20:14:35.258Z,99.90
2018-02-25T20:17:02.949Z,99.90
2018-02-25T20:19:30.981Z,99.90
2018-02-25T20:21:59.441Z,99.90
2018-02-25T20:24:27.978Z,99.90
2018-02-25T20:26:56.406Z,99.90
2018-02-25T20:29:24.050Z,99.90
2018-02-25T20:31:52.370Z,99.90
2018-02-25T20:34:20.054Z,99.90
2018-02-25T20:36:47.916Z,99.90
2018-02-25T20:39:15.590Z,99.90
2018-02-25T20:41:43.245Z,99.90
2018-02-25T20:44:10.954Z,99.90
2018-02-25T20:46:39.385Z,99.90
2018-02-25T20:49:07.086Z,99.90
2018-02-25T20:51:35.537Z,99.90
2018-02-25T20:54:03.169Z,99.90
2018-02-25T20:56:30.849Z,99.90
2018-02-25T20:58:58.494Z,99.90
2018-02-25T21:01:26.916Z,99.90
2018-02-25T21:03:54.557Z,99.90
2018-02-25T21:06:22.224Z,99.90
2018-02-25T21:08:49.943Z,99.90
2018-02-25T21:11:17.994Z,99.90
2018-02-25T21:13:45.682Z,99.90
2018-02-25T21:16:13.312Z,99.90
2018-02-25T21:18:40.992Z,99.90
2018-02-25T21:21:08.639Z,99.90
2018-02-25T21:23:36.307Z,99.90
2018-02-25T21:26:03.985Z,99.90
2018-02-25T21:28:35.674Z,99.90
2018-02-25T21:31:03.852Z,99.90
2018-02-25T21:33:31.517Z,99.90
2018-02-25T21:35:59.239Z,99.90
2018-02-25T21:38:26.900Z,99.90
2018-02-25T21:40:54.569Z,99.90
2018-02-25T21:43:22.245Z,99.90
2018-02-25T21:45:50.502Z,99.90
2018-02-25T21:48:18.966Z,99.90
2018-02-25T21:50:46.642Z,99.90
2018-02-25T21:53:14.696Z,99.90
2018-02-25T21:55:48.175Z,99.90
2018-02-25T21:58:21.572Z,99.90
2018-02-25T22:00:54.993Z,99.90
2018-02-25T22:03:28.336Z,99.90
2018-02-25T22:05:56.025Z,99.90
2018-02-25T22:08:23.678Z,99.90
2018-02-25T22:10:51.431Z,99.90
2018-02-25T22:13:19.113Z,99.90
2018-02-25T22:15:46.746Z,99.90
2018-02-25T22:18:15.189Z,99.90
2018-02-25T22:20:42.880Z,99.90
2018-02-25T22:23:12.567Z,99.90
2018-02-25T22:25:41.200Z,99.90
2018-02-25T22:28:08.830Z,99.90
2018-02-25T22:30:36.512Z,99.90
2018-02-25T22:33:04.146Z,99.90
2018-02-25T22:35:31.782Z,99.90
2018-02-25T22:38:00.230Z,99.90
2018-02-25T22:40:27.912Z,99.90
2018-02-25T22:42:55.604Z,99.90
2018-02-25T22:45:23.247Z,99.90
2018-02-25T22:47:50.961Z,99.90
2018-02-25T22:50:18.646Z,99.90
2018-02-25T22:52:46.278Z,99.90
2018-02-25T22:55:14.702Z,99.90
2018-02-25T22:57:42.363Z,99.90
2018-02-25T23:00:10.031Z,99.90
2018-02-25T23:02:37.682Z,99.90
2018-02-25T23:05:05.356Z,99.90
2018-02-25T23:07:33.067Z,99.90
2018-02-25T23:10:00.764Z,99.90
2018-02-25T23:12:29.215Z,99.90
2018-02-25T23:14:56.873Z,99.90
2018-02-25T23:17:25.015Z,99.90
2018-02-25T23:19:52.689Z,99.90
2018-02-25T23:22:20.369Z,99.90
2018-02-25T23:24:48.002Z,99.90
2018-02-25T23:27:15.658Z,99.90
2018-02-25T23:29:44.106Z,99.90
2018-02-25T23:32:11.783Z,99.90
2018-02-25T23:34:40.193Z,99.90
2018-02-25T23:37:08.628Z,99.90
2018-02-25T23:39:36.331Z,99.90
2018-02-25T23:42:04.753Z,99.90
2018-02-25T23:44:32.417Z,99.90
2018-02-25T23:47:00.102Z,99.90
2018-02-25T23:49:28.689Z,99.90
2018-02-25T23:51:56.342Z,99.90
2018-02-25T23:54:24.013Z,99.90
2018-02-25T23:56:51.659Z,99.90
2018-02-25T23:59:20.111Z,99.90
